Time;durP1;ratioP1;P1;durP2;ratioP2;P2;SDS_P1;SDS_P2;PMS_P1;PMS_P2;Temp;Humidity;BMP_temperature;BMP_pressure;BME280_temperature;BME280_humidity;BME280_pressure;Samples;Min_cycle;Max_cycle;Signal;HPM_P1;HPM_P2
2021/06/19 00:00:31;;;;;;;;;3.00;3.00;;;;;24.97;53.42;100896.91;5079710;27;45419;-41
2021/06/19 00:02:58;;;;;;;;;3.50;3.50;;;;;24.95;52.77;100886.16;5086014;27;46268;-42
2021/06/19 00:05:25;;;;;;;;;3.00;3.00;;;;;24.94;52.66;100888.03;5086753;27;45645;-40
2021/06/19 00:07:51;;;;;;;;;3.50;3.50;;;;;24.92;52.87;100900.00;5083886;27;45516;-40
2021/06/19 00:10:17;;;;;;;;;5.00;3.25;;;;;24.91;52.89;100901.84;5091883;27;45417;-41
2021/06/19 00:12:44;;;;;;;;;4.75;4.75;;;;;24.90;53.01;100888.34;5087739;27;46084;-40
2021/06/19 00:15:12;;;;;;;;;4.50;4.50;;;;;24.88;53.21;100890.34;5090012;27;45474;-41
2021/06/19 00:17:38;;;;;;;;;2.00;2.00;;;;;24.87;52.93;100894.03;5086979;27;45288;-41
2021/06/19 00:20:10;;;;;;;;;3.00;3.00;;;;;24.85;52.97;100891.44;5089022;27;45579;-40
2021/06/19 00:22:36;;;;;;;;;4.50;4.50;;;;;24.82;53.16;100896.25;5088094;27;47467;-41
2021/06/19 00:25:03;;;;;;;;;2.50;2.50;;;;;24.80;52.88;100900.97;5079768;28;45244;-41
2021/06/19 00:27:28;;;;;;;;;4.00;4.00;;;;;24.77;52.70;100907.47;5080624;27;45832;-40
2021/06/19 00:29:54;;;;;;;;;3.25;3.25;;;;;24.76;52.98;100896.72;5079825;27;45504;-41
2021/06/19 00:32:19;;;;;;;;;3.75;3.50;;;;;24.74;53.02;100898.69;5079045;27;48534;-41
2021/06/19 00:34:45;;;;;;;;;3.00;3.00;;;;;24.73;52.88;100892.41;5091048;27;45431;-43
2021/06/19 00:37:11;;;;;;;;;2.50;2.50;;;;;24.71;53.10;100896.22;5092847;27;45519;-41
2021/06/19 00:39:37;;;;;;;;;3.00;3.00;;;;;24.69;53.17;100890.94;5079661;27;45660;-40
2021/06/19 00:42:03;;;;;;;;;3.25;3.25;;;;;24.70;53.25;100891.78;5089346;27;47366;-42
2021/06/19 00:44:28;;;;;;;;;2.75;2.75;;;;;24.68;53.01;100889.19;5079896;27;45397;-40
2021/06/19 00:46:55;;;;;;;;;4.00;4.00;;;;;24.67;52.96;100898.34;5091073;27;45477;-40
2021/06/19 00:49:21;;;;;;;;;3.00;3.00;;;;;24.63;53.02;100892.25;5089240;27;45558;-40
2021/06/19 00:51:48;;;;;;;;;2.75;2.75;;;;;24.62;53.02;100892.38;5084010;27;47357;-41
2021/06/19 00:54:14;;;;;;;;;3.50;3.50;;;;;24.60;53.30;100895.22;5098895;27;45446;-40
2021/06/19 00:56:40;;;;;;;;;5.25;4.00;;;;;24.60;53.36;100902.50;5098555;27;45413;-40
2021/06/19 00:59:07;;;;;;;;;3.25;3.25;;;;;24.57;53.35;100903.59;5100049;27;45362;-42
2021/06/19 01:01:33;;;;;;;;;3.00;3.00;;;;;24.55;53.06;100911.00;5096914;27;48303;-40
2021/06/19 01:04:00;;;;;;;;;5.75;5.00;;;;;24.56;53.08;100912.72;5087263;27;45438;-40
2021/06/19 01:06:26;;;;;;;;;2.50;2.50;;;;;24.55;53.43;100904.72;5095112;27;45453;-40
2021/06/19 01:08:52;;;;;;;;;5.25;4.00;;;;;24.53;53.44;100895.81;5078954;28;45518;-40
2021/06/19 01:11:21;;;;;;;;;4.00;4.00;;;;;24.51;53.54;100892.34;5078099;27;46799;-40
2021/06/19 01:13:48;;;;;;;;;3.50;3.50;;;;;24.50;53.29;100909.59;5079034;27;45412;-40
2021/06/19 01:16:15;;;;;;;;;2.75;2.75;;;;;24.48;53.49;100898.88;5077722;28;45394;-40
2021/06/19 01:18:41;;;;;;;;;5.00;4.75;;;;;24.43;53.75;100886.66;5094449;27;45506;-40
2021/06/19 01:21:26;;;;;;;;;2.67;2.67;;;;;24.42;54.11;100876.78;5088222;27;47323;-40
2021/06/19 01:23:53;;;;;;;;;3.50;2.25;;;;;24.41;53.94;100881.34;5089543;27;45763;-40
2021/06/19 01:26:24;;;;;;;;;3.00;3.00;;;;;24.40;54.16;100878.75;5095078;27;45222;-40
2021/06/19 01:28:51;;;;;;;;;3.75;3.50;;;;;24.37;53.83;100871.69;5078888;28;45457;-40
2021/06/19 01:31:18;;;;;;;;;4.25;3.75;;;;;24.35;54.11;100871.81;5085880;27;46365;-40
2021/06/19 01:33:46;;;;;;;;;4.00;4.00;;;;;24.32;54.09;100873.91;5090752;27;45883;-40
2021/06/19 01:36:12;;;;;;;;;4.00;4.00;;;;;24.30;54.01;100874.03;5097741;27;45928;-42
2021/06/19 01:38:38;;;;;;;;;4.00;2.67;;;;;24.30;54.30;100892.16;5097527;27;45424;-40
2021/06/19 01:41:05;;;;;;;;;4.50;4.25;;;;;24.29;54.38;100899.41;5094099;27;47261;-40
2021/06/19 01:43:30;;;;;;;;;4.00;4.00;;;;;24.28;54.40;100894.97;5094650;27;45579;-40
2021/06/19 01:45:55;;;;;;;;;4.00;4.00;;;;;24.26;54.41;100891.47;5090209;27;45623;-41
2021/06/19 01:48:21;;;;;;;;;3.75;3.75;;;;;24.26;54.52;100898.75;5085862;27;45546;-40
2021/06/19 01:50:46;;;;;;;;;4.00;4.00;;;;;24.25;54.45;100899.72;5076757;27;47001;-40
2021/06/19 01:53:12;;;;;;;;;3.50;3.50;;;;;24.26;54.73;100905.03;5089905;27;45444;-41
2021/06/19 01:55:37;;;;;;;;;4.00;4.00;;;;;24.28;54.68;100907.66;5088822;27;45798;-41
2021/06/19 01:58:03;;;;;;;;;4.00;4.00;;;;;24.29;54.69;100907.53;5099130;27;45287;-41
2021/06/19 02:00:37;;;;;;;;;5.00;5.00;;;;;24.30;54.54;100906.59;5096957;27;47074;-41
2021/06/19 02:03:07;;;;;;;;;5.00;4.33;;;;;24.32;54.39;100907.31;5081196;27;46064;-41
2021/06/19 02:05:33;;;;;;;;;6.00;4.33;;;;;24.32;54.58;100907.31;5086763;27;45282;-42
2021/06/19 02:08:00;;;;;;;;;4.00;4.00;;;;;24.34;54.48;100901.78;5079691;27;45344;-41
2021/06/19 02:10:33;;;;;;;;;5.33;5.33;;;;;24.35;54.78;100898.94;5078727;27;47302;-41
2021/06/19 02:13:00;;;;;;;;;6.00;6.00;;;;;24.39;54.71;100901.41;5090835;27;45366;-41
2021/06/19 02:15:25;;;;;;;;;2.67;2.67;;;;;24.43;54.65;100900.22;5091266;27;45389;-41
2021/06/19 02:17:51;;;;;;;;;3.00;3.00;;;;;24.46;54.72;100908.13;5088631;27;45610;-41
2021/06/19 02:20:18;;;;;;;;;3.00;3.00;;;;;24.48;54.45;100904.31;5088911;27;47199;-40
2021/06/19 02:22:44;;;;;;;;;3.00;3.00;;;;;24.50;54.47;100902.34;5088615;27;45570;-41
2021/06/19 02:25:12;;;;;;;;;3.00;3.00;;;;;24.52;54.01;100896.78;5098539;27;45307;-41
2021/06/19 02:27:46;;;;;;;;;4.67;4.67;;;;;24.51;54.21;100890.50;5084336;27;45545;-41
2021/06/19 02:30:12;;;;;;;;;2.33;2.33;;;;;24.52;54.44;100889.53;5092670;27;48153;-49
2021/06/19 02:32:38;;;;;;;;;3.00;3.00;;;;;24.55;54.48;100880.28;5077169;27;45798;-41
2021/06/19 02:35:06;;;;;;;;;2.67;2.67;;;;;24.58;54.44;100890.91;5078015;27;45439;-41
2021/06/19 02:37:31;;;;;;;;;4.00;4.00;;;;;24.60;54.31;100889.78;5078332;27;45193;-41
2021/06/19 02:39:56;;;;;;;;;3.67;3.67;;;;;24.62;54.13;100895.09;5077596;27;46202;-42
2021/06/19 02:42:22;;;;;;;;;4.00;2.67;;;;;24.62;53.90;100908.66;5089841;27;45361;-41
2021/06/19 02:44:47;;;;;;;;;3.00;3.00;;;;;24.59;53.55;100912.47;5083778;27;45375;-50
2021/06/19 02:47:13;;;;;;;;;2.67;2.67;;;;;24.59;53.88;100920.63;5094533;27;46143;-41
2021/06/19 02:49:38;;;;;;;;;3.33;3.33;;;;;24.59;53.57;100917.91;5097959;27;47130;-41
2021/06/19 02:52:04;;;;;;;;;2.67;2.67;;;;;24.59;53.74;100917.03;5092338;27;45273;-42
2021/06/19 02:54:29;;;;;;;;;1.67;1.67;;;;;24.58;53.66;100918.03;5096004;27;45320;-41
2021/06/19 02:56:55;;;;;;;;;2.67;2.67;;;;;24.57;53.55;100925.31;5089931;27;45716;-41
2021/06/19 02:59:20;;;;;;;;;2.67;2.33;;;;;24.57;53.37;100919.88;5094043;27;47189;-41
2021/06/19 03:01:46;;;;;;;;;3.67;3.33;;;;;24.57;53.60;100922.59;5077906;27;45350;-42
2021/06/19 03:04:13;;;;;;;;;3.33;2.67;;;;;24.56;53.56;100920.88;5076144;27;45464;-41
2021/06/19 03:06:38;;;;;;;;;3.00;3.00;;;;;24.54;53.81;100911.97;5089962;27;45809;-41
2021/06/19 03:09:04;;;;;;;;;2.67;2.67;;;;;24.56;53.78;100920.88;5097853;27;47085;-41
2021/06/19 03:11:30;;;;;;;;;2.67;2.67;;;;;24.58;53.67;100927.03;5091578;27;45302;-41
2021/06/19 03:13:57;;;;;;;;;4.00;4.00;;;;;24.59;53.86;100915.19;5077375;27;45380;-42
2021/06/19 03:16:22;;;;;;;;;2.67;2.67;;;;;24.57;53.27;100916.31;5077534;27;45356;-41
2021/06/19 03:18:47;;;;;;;;;2.33;2.33;;;;;24.58;53.70;100918.03;5082158;27;47190;-41
2021/06/19 03:21:13;;;;;;;;;4.00;4.00;;;;;24.59;53.61;100922.47;5080771;27;45575;-40
2021/06/19 03:23:38;;;;;;;;;3.00;3.00;;;;;24.56;53.47;100915.44;5093862;27;45243;-41
2021/06/19 03:26:04;;;;;;;;;3.33;3.33;;;;;24.57;53.93;100916.31;5101424;27;45508;-41
2021/06/19 03:28:29;;;;;;;;;2.50;2.50;;;;;24.57;53.70;100911.75;5080662;27;48319;-40
2021/06/19 03:30:55;;;;;;;;;4.33;4.33;;;;;24.58;53.87;100909.88;5081979;27;45263;-40
2021/06/19 03:33:20;;;;;;;;;7.00;5.00;;;;;24.57;53.52;100902.75;5079497;27;45581;-41
2021/06/19 03:35:47;;;;;;;;;2.67;2.67;;;;;24.56;53.44;100904.59;5088343;27;45504;-40
2021/06/19 03:38:12;;;;;;;;;3.33;3.33;;;;;24.58;53.85;100909.88;5080490;27;48064;-40
2021/06/19 03:40:38;;;;;;;;;3.33;3.33;;;;;24.61;53.58;100920.50;5080669;27;45688;-41
2021/06/19 03:43:04;;;;;;;;;4.33;3.33;;;;;24.64;53.92;100912.13;5080798;27;45427;-41
2021/06/19 03:45:34;;;;;;;;;4.00;3.33;;;;;24.67;53.68;100916.47;5082539;27;45320;-41
2021/06/19 03:48:00;;;;;;;;;3.33;3.33;;;;;24.67;53.50;100916.47;5103487;27;47189;-40
2021/06/19 03:50:27;;;;;;;;;3.33;3.33;;;;;24.68;53.54;100905.50;5080417;27;45606;-41
2021/06/19 03:52:55;;;;;;;;;5.00;5.00;;;;;24.66;53.46;100907.47;5085700;27;45397;-41
2021/06/19 03:55:21;;;;;;;;;3.33;3.33;;;;;24.65;53.37;100905.72;5096670;27;45504;-41
2021/06/19 03:57:46;;;;;;;;;4.00;4.00;;;;;24.61;53.53;100912.34;5099648;27;45400;-41
2021/06/19 04:00:15;;;;;;;;;3.67;3.67;;;;;24.62;53.61;100922.22;5100143;27;45868;-41
2021/06/19 04:02:40;;;;;;;;;3.33;3.33;;;;;24.63;53.56;100922.09;5080325;27;45405;-41
2021/06/19 04:05:07;;;;;;;;;4.00;4.00;;;;;24.63;53.47;100900.41;5080698;27;45641;-42
2021/06/19 04:07:33;;;;;;;;;2.67;2.67;;;;;24.63;53.65;100916.69;5080079;27;47412;-41
2021/06/19 04:09:59;;;;;;;;;6.33;5.00;;;;;24.65;53.37;100916.59;5080744;27;45556;-41
2021/06/19 04:12:24;;;;;;;;;5.25;5.25;;;;;24.67;53.77;100913.75;5092831;27;45450;-41
2021/06/19 04:14:51;;;;;;;;;4.00;4.00;;;;;24.67;53.89;100917.34;5081263;27;45583;-41
2021/06/19 04:17:17;;;;;;;;;4.67;4.67;;;;;24.69;53.52;100896.34;5079767;27;48119;-41
2021/06/19 04:19:44;;;;;;;;;5.00;5.00;;;;;24.70;53.44;100899.94;5081292;27;46005;-42
2021/06/19 04:22:11;;;;;;;;;4.00;4.00;;;;;24.68;53.67;100907.34;5091680;27;45261;-41
2021/06/19 04:24:37;;;;;;;;;6.00;5.33;;;;;24.68;53.74;100913.63;5080003;27;45485;-42
2021/06/19 04:27:04;;;;;;;;;5.67;5.67;;;;;24.70;53.73;100911.66;5086307;27;47285;-41
2021/06/19 04:29:32;;;;;;;;;3.67;3.67;;;;;24.72;53.60;100912.41;5099561;27;45444;-41
2021/06/19 04:32:00;;;;;;;;;5.67;5.67;;;;;24.71;53.65;100923.38;5083507;27;45246;-42
2021/06/19 04:34:25;;;;;;;;;4.67;4.67;;;;;24.66;53.51;100912.88;5079951;27;45340;-40
2021/06/19 04:36:52;;;;;;;;;5.33;4.67;;;;;24.65;53.72;100913.88;5079533;27;46332;-41
2021/06/19 04:39:18;;;;;;;;;5.50;5.50;;;;;24.65;53.75;100920.16;5092517;27;45766;-40
2021/06/19 04:44:26;;;;;;;;;6.75;6.75;;;;;24.70;53.89;100922.50;5091777;27;45450;-41
2021/06/19 04:46:52;;;;;;;;;6.00;6.00;;;;;24.73;54.04;100916.84;5097107;27;47249;-42
2021/06/19 04:49:18;;;;;;;;;7.50;7.50;;;;;24.74;54.00;100918.56;5079327;27;45447;-41
2021/06/19 04:51:44;;;;;;;;;5.50;5.25;;;;;24.77;53.79;100914.75;5079070;27;45721;-41
2021/06/19 04:54:10;;;;;;;;;7.00;7.00;;;;;24.78;53.80;100919.22;5079514;27;45348;-42
2021/06/19 04:56:41;;;;;;;;;4.75;4.75;;;;;24.77;53.63;100920.16;5096715;27;47256;-41
2021/06/19 04:59:07;;;;;;;;;6.00;6.00;;;;;24.76;53.90;100930.16;5098951;27;45334;-41
2021/06/19 05:01:33;;;;;;;;;6.67;6.67;;;;;24.76;53.81;100929.31;5081592;27;46319;-41
2021/06/19 05:04:01;;;;;;;;;5.67;5.67;;;;;24.75;53.91;100933.88;5080596;27;45634;-43
2021/06/19 05:06:28;;;;;;;;;5.75;5.75;;;;;24.75;53.84;100933.88;5077622;27;45647;-40
2021/06/19 05:08:53;;;;;;;;;6.00;6.00;;;;;24.76;53.91;100930.16;5092166;27;45567;-41
2021/06/19 05:11:19;;;;;;;;;7.00;7.00;;;;;24.77;53.89;100922.88;5090657;27;45997;-41
2021/06/19 05:13:46;;;;;;;;;6.25;6.25;;;;;24.79;54.02;100927.25;5085388;27;45523;-41
2021/06/19 05:16:11;;;;;;;;;4.50;4.50;;;;;24.82;53.88;100940.56;5080279;27;48742;-41
2021/06/19 05:18:37;;;;;;;;;6.00;6.00;;;;;24.84;53.83;100943.16;5079673;27;45356;-41
2021/06/19 05:21:03;;;;;;;;;7.75;7.00;;;;;24.87;53.70;100943.78;5081339;27;45470;-41
2021/06/19 05:23:28;;;;;;;;;6.00;6.00;;;;;24.90;53.78;100940.84;5082132;27;45333;-41
2021/06/19 05:25:54;;;;;;;;;6.33;6.33;;;;;24.93;53.64;100931.59;5097339;27;48135;-41
2021/06/19 05:28:19;;;;;;;;;6.67;6.67;;;;;24.95;53.78;100930.47;5083832;27;45415;-41
2021/06/19 05:30:44;;;;;;;;;8.00;6.00;;;;;24.97;53.83;100929.50;5091193;27;45337;-41
2021/06/19 05:33:10;;;;;;;;;7.00;7.00;;;;;24.99;53.57;100944.66;5108910;27;45638;-40
2021/06/19 05:35:35;;;;;;;;;5.50;5.50;;;;;25.01;53.51;100950.00;5091649;27;48293;-40
2021/06/19 05:38:01;;;;;;;;;4.67;4.67;;;;;25.02;53.42;100932.72;5091378;27;45699;-41
2021/06/19 05:40:26;;;;;;;;;6.25;6.25;;;;;25.03;53.33;100934.44;5089789;27;45415;-41
2021/06/19 05:42:53;;;;;;;;;6.25;6.00;;;;;25.05;53.14;100937.94;5092430;27;45836;-42
2021/06/19 05:45:18;;;;;;;;;5.75;5.75;;;;;25.05;53.18;100925.22;5091788;27;47259;-40
2021/06/19 05:47:44;;;;;;;;;4.67;4.67;;;;;25.07;52.96;100914.22;5092941;27;45288;-41
2021/06/19 05:50:10;;;;;;;;;7.00;5.75;;;;;25.09;52.94;100923.97;5088969;27;45649;-40
2021/06/19 05:52:36;;;;;;;;;5.33;5.33;;;;;25.10;52.76;100917.56;5087730;27;45416;-40
2021/06/19 05:55:03;;;;;;;;;4.33;4.33;;;;;25.11;52.74;100918.44;5091074;27;47245;-40
2021/06/19 05:57:29;;;;;;;;;4.67;4.67;;;;;25.11;52.79;100916.56;5092358;27;45600;-40
2021/06/19 05:59:54;;;;;;;;;5.00;5.00;;;;;25.12;52.63;100912.88;5094187;27;45631;-41
2021/06/19 06:02:20;;;;;;;;;5.67;5.67;;;;;25.14;52.71;100908.19;5089810;27;46610;-41
2021/06/19 06:04:45;;;;;;;;;6.25;6.25;;;;;25.14;52.86;100919.03;5093041;27;46922;-41
2021/06/19 06:07:11;;;;;;;;;4.75;4.75;;;;;25.15;52.72;100919.91;5085928;27;46693;-40
2021/06/19 06:09:38;;;;;;;;;5.33;5.33;;;;;25.14;52.75;100908.19;5089036;27;45748;-41
2021/06/19 06:12:05;;;;;;;;;4.33;3.67;;;;;25.16;52.51;100910.81;5096065;27;45610;-40
2021/06/19 06:14:31;;;;;;;;;3.67;3.67;;;;;25.15;52.16;100909.03;5103038;27;47487;-40
2021/06/19 06:16:56;;;;;;;;;4.33;4.33;;;;;25.14;52.31;100910.03;5086232;27;45460;-40
2021/06/19 06:19:23;;;;;;;;;5.25;5.25;;;;;25.15;52.30;100909.03;5089777;27;45310;-40
2021/06/19 06:21:48;;;;;;;;;6.00;6.00;;;;;25.16;52.62;100899.94;5086808;27;45748;-40
2021/06/19 06:24:14;;;;;;;;;6.00;6.00;;;;;25.18;52.31;100904.25;5087913;27;47065;-42
2021/06/19 06:26:39;;;;;;;;;8.00;7.50;;;;;25.21;52.68;100895.84;5085181;27;46389;-40
2021/06/19 06:29:05;;;;;;;;;7.75;6.00;;;;;25.23;52.28;100901.16;5089639;27;45515;-40
2021/06/19 06:31:34;;;;;;;;;6.00;6.00;;;;;25.24;52.21;100903.75;5092360;27;45683;-39
2021/06/19 06:33:59;;;;;;;;;7.75;6.75;;;;;25.25;52.68;100893.75;5088679;27;47430;-43
2021/06/19 06:36:25;;;;;;;;;9.25;9.00;;;;;25.30;52.74;100894.25;5081686;27;46827;-45
2021/06/19 06:38:50;;;;;;;;;8.00;8.00;;;;;25.35;52.58;100892.03;5085586;27;45458;-45
2021/06/19 06:41:16;;;;;;;;;8.00;7.00;;;;;25.39;52.06;100906.22;5083351;27;45671;-45
2021/06/19 06:43:41;;;;;;;;;7.25;7.25;;;;;25.42;52.10;100906.00;5092342;27;47774;-43
2021/06/19 06:46:07;;;;;;;;;6.75;5.25;;;;;25.43;52.04;100905.00;5086300;27;45452;-45
2021/06/19 06:48:32;;;;;;;;;7.25;7.25;;;;;25.44;51.73;100920.31;5083499;27;45766;-45
2021/06/19 06:50:58;;;;;;;;;8.25;8.25;;;;;25.44;52.21;100920.31;5079197;27;45945;-42
2021/06/19 06:53:24;;;;;;;;;8.67;8.00;;;;;25.46;51.93;100930.06;5082661;27;47467;-45
2021/06/19 06:55:49;;;;;;;;;6.00;5.00;;;;;25.44;51.89;100928.47;5080138;27;45396;-45
2021/06/19 06:58:15;;;;;;;;;7.00;7.00;;;;;25.40;52.17;100932.38;5090273;27;45706;-43
2021/06/19 07:00:40;;;;;;;;;5.75;5.75;;;;;25.40;52.47;100927.81;5087187;27;45795;-43
2021/06/19 07:03:06;;;;;;;;;6.33;6.33;;;;;25.42;52.47;100934.03;5098316;27;46152;-42
2021/06/19 07:05:31;;;;;;;;;5.50;5.50;;;;;25.44;52.16;100923.88;5088176;27;45407;-41
2021/06/19 07:07:57;;;;;;;;;6.00;6.00;;;;;25.44;52.13;100925.75;5092029;27;45798;-48
2021/06/19 07:10:22;;;;;;;;;4.67;4.67;;;;;25.41;51.94;100924.16;5089093;27;45535;-42
2021/06/19 07:12:48;;;;;;;;;5.67;5.67;;;;;25.41;52.05;100935.00;5086688;27;46357;-43
2021/06/19 07:15:15;;;;;;;;;6.50;6.25;;;;;25.45;51.87;100949.22;5089267;27;46425;-43
2021/06/19 07:17:41;;;;;;;;;5.50;5.00;;;;;25.48;52.22;100935.38;5108034;27;45577;-43
2021/06/19 07:20:09;;;;;;;;;8.50;7.25;;;;;25.50;51.83;100922.50;5085415;27;45743;-44
2021/06/19 07:22:35;;;;;;;;;7.25;6.50;;;;;25.49;51.80;100915.34;5088086;27;47197;-46
2021/06/19 07:25:01;;;;;;;;;5.50;5.50;;;;;25.48;52.39;100919.94;5086706;27;46086;-47
2021/06/19 07:27:29;;;;;;;;;7.25;7.25;;;;;25.52;52.44;100920.53;5088797;27;45511;-45
2021/06/19 07:29:55;;;;;;;;;7.50;7.00;;;;;25.58;51.84;100924.63;5093160;27;45304;-42
2021/06/19 07:32:20;;;;;;;;;6.25;6.25;;;;;25.57;51.97;100920.19;5086764;27;46705;-45
2021/06/19 07:34:46;;;;;;;;;8.00;8.00;;;;;25.59;52.14;100908.19;5092817;27;45273;-44
2021/06/19 07:37:11;;;;;;;;;9.25;8.25;;;;;25.63;52.16;100916.94;5083298;27;45528;-43
2021/06/19 07:39:36;;;;;;;;;7.00;7.00;;;;;25.69;51.97;100897.47;5079613;27;45586;-45
2021/06/19 07:42:02;;;;;;;;;8.00;8.00;;;;;25.72;51.67;100881.75;5087141;27;47196;-45
2021/06/19 07:44:28;;;;;;;;;4.50;4.50;;;;;25.77;51.85;100875.94;5081422;27;45597;-42
2021/06/19 07:46:54;;;;;;;;;7.50;7.50;;;;;25.81;51.76;100861.97;5096476;27;45517;-43
2021/06/19 07:49:20;;;;;;;;;6.25;6.25;;;;;25.84;51.44;100844.53;5088231;27;45520;-42
2021/06/19 07:51:46;;;;;;;;;5.25;5.25;;;;;25.86;51.90;100834.41;5086982;27;47302;-44
2021/06/19 07:54:12;;;;;;;;;7.25;6.75;;;;;25.85;51.34;100813.63;5085526;27;45385;-42
2021/06/19 07:56:37;;;;;;;;;8.00;7.00;;;;;25.80;51.19;100813.19;5095105;27;45591;-44
2021/06/19 07:59:03;;;;;;;;;7.25;7.25;;;;;25.73;51.53;100812.81;5090502;27;45877;-43
2021/06/19 08:01:29;;;;;;;;;9.25;9.00;;;;;25.67;51.36;100817.88;5095069;27;47139;-44
2021/06/19 08:03:54;;;;;;;;;7.00;7.00;;;;;25.67;51.70;100823.31;5083809;27;45631;-44
2021/06/19 08:06:20;;;;;;;;;6.75;6.75;;;;;25.71;51.75;100832.97;5094755;27;45493;-42
2021/06/19 08:08:45;;;;;;;;;7.50;6.50;;;;;25.74;51.69;100835.41;5095289;27;45664;-43
2021/06/19 08:11:11;;;;;;;;;6.00;5.50;;;;;25.78;52.26;100840.47;5098384;27;47179;-43
2021/06/19 08:13:36;;;;;;;;;8.67;8.33;;;;;25.83;52.11;100844.69;5086268;27;46206;-42
2021/06/19 08:16:04;;;;;;;;;9.00;7.75;;;;;25.86;51.85;100842.56;5078352;27;45718;-44
2021/06/19 08:18:30;;;;;;;;;9.00;9.00;;;;;25.88;51.35;100832.41;5090023;27;45535;-47
2021/06/19 08:20:56;;;;;;;;;10.75;9.25;;;;;25.88;51.91;100824.25;5091893;27;45876;-42
2021/06/19 08:23:21;;;;;;;;;7.00;7.00;;;;;25.88;51.85;100810.66;5088215;27;44929;-42
2021/06/19 08:25:47;;;;;;;;;7.75;7.25;;;;;25.89;52.13;100787.91;5086925;27;45376;-42
2021/06/19 08:28:13;;;;;;;;;8.00;7.67;;;;;25.90;51.26;100780.63;5086925;27;45793;-43
2021/06/19 08:30:38;;;;;;;;;8.25;8.25;;;;;25.90;51.76;100808.66;5094199;27;47391;-42
2021/06/19 08:33:04;;;;;;;;;8.00;8.00;;;;;25.89;51.37;100827.84;5077184;27;45814;-43
2021/06/19 08:35:29;;;;;;;;;9.25;8.25;;;;;25.89;51.83;100845.00;5082160;27;45446;-42
2021/06/19 08:37:55;;;;;;;;;8.00;8.00;;;;;25.93;52.09;100842.91;5098235;27;45559;-43
2021/06/19 08:40:21;;;;;;;;;9.50;9.50;;;;;25.95;51.68;100822.75;5077505;27;48351;-43
2021/06/19 08:42:46;;;;;;;;;8.25;8.25;;;;;26.00;51.98;100806.03;5093113;27;45316;-43
2021/06/19 08:45:12;;;;;;;;;9.75;9.75;;;;;26.06;52.12;100809.13;5086697;27;45669;-43
2021/06/19 08:47:38;;;;;;;;;8.00;8.00;;;;;26.15;51.38;100803.88;5099541;27;45307;-44
2021/06/19 08:50:09;;;;;;;;;7.25;7.00;;;;;26.24;51.91;100794.91;5088094;27;45379;-47
2021/06/19 08:52:36;;;;;;;;;8.75;7.75;;;;;26.31;51.09;100796.13;5087783;27;45420;-45
2021/06/19 08:55:04;;;;;;;;;8.75;8.75;;;;;26.37;51.47;100792.91;5086142;27;48195;-47
2021/06/19 08:57:30;;;;;;;;;11.67;10.67;;;;;26.36;50.88;100793.91;5081420;27;46095;-43
2021/06/19 08:59:56;;;;;;;;;8.50;7.25;;;;;26.33;50.91;100794.13;5088168;27;46268;-44
2021/06/19 09:02:21;;;;;;;;;8.00;8.00;;;;;26.31;51.26;100790.69;5092915;27;45637;-43
2021/06/19 09:05:26;;;;;;;;;10.50;10.50;;;;;26.26;51.71;100782.03;5090552;27;45698;-43
2021/06/19 09:07:53;;;;;;;;;8.75;8.25;;;;;26.23;51.82;100785.91;5047001;27;45582;-43
2021/06/19 09:10:34;;;;;;;;;10.50;10.50;;;;;26.22;51.98;100781.47;5091699;27;46074;-44
2021/06/19 09:13:02;;;;;;;;;11.25;11.25;;;;;26.22;51.41;100777.88;5088583;27;45668;-46
2021/06/19 09:15:33;;;;;;;;;11.00;11.00;;;;;26.26;51.44;100769.31;5091878;27;45871;-43
2021/06/19 09:18:08;;;;;;;;;10.50;10.50;;;;;26.30;51.84;100776.22;5086112;27;45981;-42
2021/06/19 09:20:53;;;;;;;;;11.75;11.75;;;;;26.33;51.38;100769.66;5092177;27;48453;-44
2021/06/19 09:23:33;;;;;;;;;9.75;9.75;;;;;26.35;51.65;100782.13;5088613;27;45740;-48
2021/06/19 09:26:15;;;;;;;;;13.50;13.00;;;;;26.37;51.38;100773.84;5084335;27;45649;-44
2021/06/19 09:29:10;;;;;;;;;8.50;8.50;;;;;26.37;51.72;100774.72;5085870;27;45464;-49
2021/06/19 09:31:42;;;;;;;;;10.50;10.50;;;;;26.46;51.45;100775.78;5084428;27;47603;-46
2021/06/19 09:34:15;;;;;;;;;9.50;9.50;;;;;26.55;51.17;100774.97;5080105;27;45799;-45
2021/06/19 09:36:42;;;;;;;;;10.75;10.75;;;;;26.64;50.99;100781.47;5086986;27;45520;-48
2021/06/19 09:39:09;;;;;;;;;11.00;11.00;;;;;26.69;50.98;100779.22;5080298;27;45817;-45
2021/06/19 09:41:56;;;;;;;;;10.75;10.75;;;;;26.72;51.10;100778.06;5079430;27;48220;-45
2021/06/19 09:44:54;;;;;;;;;9.75;9.75;;;;;26.80;50.95;100772.78;5080605;27;45570;-43
2021/06/19 09:47:20;;;;;;;;;10.75;10.50;;;;;26.88;51.37;100775.69;5036184;27;45693;-43
2021/06/19 09:49:48;;;;;;;;;8.50;8.50;;;;;26.93;50.80;100778.88;5082317;27;45279;-46
2021/06/19 09:52:15;;;;;;;;;10.00;10.00;;;;;26.94;50.96;100777.91;5075819;27;47458;-46
2021/06/19 09:54:55;;;;;;;;;12.25;12.25;;;;;26.93;51.33;100774.31;5077714;27;45522;-44
2021/06/19 09:57:40;;;;;;;;;12.00;12.00;;;;;26.95;50.85;100775.03;5073491;28;45779;-45
2021/06/19 10:00:13;;;;;;;;;10.75;10.75;;;;;26.96;50.79;100776.75;5083331;27;46219;-45
2021/06/19 10:02:39;;;;;;;;;9.75;9.75;;;;;27.02;50.33;100774.50;5081229;27;48948;-52
2021/06/19 10:05:06;;;;;;;;;9.00;9.00;;;;;27.08;50.70;100779.41;5082285;27;45429;-44
2021/06/19 10:07:35;;;;;;;;;9.25;9.25;;;;;27.14;50.86;100778.84;5078764;27;45541;-45
2021/06/19 10:10:04;;;;;;;;;8.50;8.50;;;;;27.20;50.36;100776.44;5082951;27;45507;-44
2021/06/19 10:12:32;;;;;;;;;10.50;10.50;;;;;27.27;50.09;100768.56;5083143;27;47045;-45
2021/06/19 10:14:59;;;;;;;;;9.25;9.25;;;;;27.34;50.72;100763.44;5083585;27;45806;-44
2021/06/19 10:17:30;;;;;;;;;10.25;10.25;;;;;27.39;50.07;100748.34;5088747;27;45558;-46
2021/06/19 10:19:56;;;;;;;;;12.50;10.50;;;;;27.45;50.19;100747.81;5085811;27;45433;-44
2021/06/19 10:22:26;;;;;;;;;11.00;11.00;;;;;27.44;50.27;100756.09;5083777;27;47506;-43
2021/06/19 10:24:53;;;;;;;;;11.00;11.00;;;;;27.37;49.84;100754.97;5077877;27;45661;-46
2021/06/19 10:27:19;;;;;;;;;12.00;12.00;;;;;27.28;50.61;100751.19;5089326;27;46154;-43
2021/06/19 10:29:52;;;;;;;;;10.00;10.00;;;;;27.17;49.67;100744.00;5093904;27;45661;-44
2021/06/19 10:32:38;;;;;;;;;14.50;13.75;;;;;27.10;49.95;100740.13;5104233;27;48227;-42
2021/06/19 10:35:05;;;;;;;;;10.25;10.25;;;;;27.02;50.50;100737.22;5095191;27;46068;-45
2021/06/19 10:37:31;;;;;;;;;14.00;13.00;;;;;26.95;50.29;100738.75;5082874;27;45449;-45
2021/06/19 10:39:57;;;;;;;;;13.25;13.00;;;;;26.91;50.66;100737.28;5087485;27;45550;-43
2021/06/19 10:42:33;;;;;;;;;12.50;12.50;;;;;26.88;51.30;100727.53;5079980;27;47217;-43
2021/06/19 10:45:14;;;;;;;;;13.25;13.25;;;;;26.89;51.63;100723.81;5099780;27;45574;-43
2021/06/19 10:47:59;;;;;;;;;13.50;13.50;;;;;26.93;51.49;100725.28;5086079;27;45697;-43
2021/06/19 10:50:25;;;;;;;;;14.00;13.50;;;;;26.99;50.75;100718.41;5092076;27;45567;-45
2021/06/19 10:53:19;;;;;;;;;13.50;13.25;;;;;27.07;51.17;100717.75;5088838;27;48216;-45
2021/06/19 10:55:49;;;;;;;;;15.00;13.00;;;;;27.14;50.79;100706.16;5080539;27;45328;-43
2021/06/19 10:58:18;;;;;;;;;16.50;16.50;;;;;27.23;50.58;100701.72;5086887;27;45569;-43
2021/06/19 11:00:46;;;;;;;;;29.25;26.50;;;;;27.32;51.31;100692.72;5081187;27;45727;-44
2021/06/19 11:03:13;;;;;;;;;32.75;30.25;;;;;27.41;50.50;100696.44;5086653;27;45554;-45
2021/06/19 11:05:42;;;;;;;;;28.50;27.25;;;;;27.46;50.93;100683.25;5089844;27;45554;-45
2021/06/19 11:08:08;;;;;;;;;28.00;27.00;;;;;27.49;50.55;100682.97;5084764;27;45419;-48
2021/06/19 11:10:49;;;;;;;;;31.75;31.25;;;;;27.53;50.12;100693.44;5092471;27;46130;-44
2021/06/19 11:13:41;;;;;;;;;18.00;18.00;;;;;27.57;50.34;100691.31;5085752;27;47275;-47
2021/06/19 11:16:32;;;;;;;;;21.25;20.00;;;;;27.57;49.70;100680.41;5079419;27;45503;-45
2021/06/19 11:18:58;;;;;;;;;17.00;16.75;;;;;27.58;50.08;100670.34;5071357;27;45581;-44
2021/06/19 11:21:23;;;;;;;;;18.25;18.25;;;;;27.56;50.26;100679.50;5075587;27;45702;-44
2021/06/19 11:24:05;;;;;;;;;13.25;12.50;;;;;27.57;50.31;100680.41;5087655;27;48265;-43
2021/06/19 11:26:56;;;;;;;;;21.75;20.75;;;;;27.58;49.96;100684.84;5087506;27;45602;-45